Главная страница
METAR-TAF:

METAR-TAF

Аэропорты :

Вено, Микронезия

широта: 07-28N, долгота: 151-51E, высота над уровнем моря: 3 м

Текущие метеонаблюдения

Эта сводка был подготовлена 51 минут назад, в 01:52 UTC
Ветер 10 Узел от северо-северо-восточный
Температура 30°C
Влажность 79%
Давление 1007 hPa
Видимость: 24.1 км
небольшая облачность на высоте 1400 фута
Отдельные облака на высоте 28000 фута

METAR: PTKK 220152Z 03010KT 15SM FEW014 SCT280 30/26 A2975 RMK SLP076 T03030257

Время: 12:43 (02:43 UTC)

Прогноз

Эта сводка был подготовлена 3 часа и 16 минут назад, в 23:27 UTC
Прогноз действительный с 22-го 00 UTC до 22-го 24 UTC
Ветер 11 Узел от северо-восточный
Видимость: 10 км
небольшая облачность на высоте 1800 фута
Отдельные облака на высоте 5000 фута

TAF: PTKK 212327Z 2200/2224 05011KT P6SM FEW018 SCT050

Метеонаблюдения и прогнозы для более 4000 аэропортов (сводки METAR и TAF).

Имеющиеся станции представлены на карте желтыми и красными точками.

Чтобы увидеть название станции, наведите на нее мышь.

Затем щелкните, чтобы увидеть метеонаблюдения и метеопрогнозы.

Управление картой: чтобы увеличить масштаб, щелкните зеленые кнопки с черным крестиком; чтобы уменьшить масштаб, щелкните зеленую кнопку с тире; для просмотра соседних карт щелкайте зеленые стрелки.


METAR-TAF: